sensor_id;sensor_type;location;lat;lon;timestamp;temperature;humidity
11989;DHT22;6054;50.966;7.094;2024-03-02T00:01:50;15.60;45.20
11989;DHT22;6054;50.966;7.094;2024-03-02T00:04:17;15.60;45.70
11989;DHT22;6054;50.966;7.094;2024-03-02T00:06:43;15.60;45.70
11989;DHT22;6054;50.966;7.094;2024-03-02T00:09:12;15.60;45.40
11989;DHT22;6054;50.966;7.094;2024-03-02T00:11:39;15.90;45.60
11989;DHT22;6054;50.966;7.094;2024-03-02T00:14:06;15.60;45.70
11989;DHT22;6054;50.966;7.094;2024-03-02T00:16:33;15.90;46.00
11989;DHT22;6054;50.966;7.094;2024-03-02T00:19:03;15.60;45.60
11989;DHT22;6054;50.966;7.094;2024-03-02T00:21:39;15.60;46.10
11989;DHT22;6054;50.966;7.094;2024-03-02T00:24:19;15.60;45.70
11989;DHT22;6054;50.966;7.094;2024-03-02T00:26:47;15.60;46.30
11989;DHT22;6054;50.966;7.094;2024-03-02T00:29:15;15.60;45.90
11989;DHT22;6054;50.966;7.094;2024-03-02T00:31:44;15.60;46.10
11989;DHT22;6054;50.966;7.094;2024-03-02T00:34:14;15.60;45.90
11989;DHT22;6054;50.966;7.094;2024-03-02T00:36:41;15.60;45.70
11989;DHT22;6054;50.966;7.094;2024-03-02T00:39:08;15.60;45.90
11989;DHT22;6054;50.966;7.094;2024-03-02T00:41:41;15.60;46.30
11989;DHT22;6054;50.966;7.094;2024-03-02T00:44:10;15.60;45.90
11989;DHT22;6054;50.966;7.094;2024-03-02T00:46:39;15.60;46.20
11989;DHT22;6054;50.966;7.094;2024-03-02T00:49:12;15.60;46.10
11989;DHT22;6054;50.966;7.094;2024-03-02T00:51:48;15.60;45.90
11989;DHT22;6054;50.966;7.094;2024-03-02T00:54:20;16.00;46.40
11989;DHT22;6054;50.966;7.094;2024-03-02T00:56:54;15.90;46.10
11989;DHT22;6054;50.966;7.094;2024-03-02T00:59:22;15.70;45.70
11989;DHT22;6054;50.966;7.094;2024-03-02T01:01:53;15.90;45.10
11989;DHT22;6054;50.966;7.094;2024-03-02T01:04:21;15.70;46.00
11989;DHT22;6054;50.966;7.094;2024-03-02T01:06:49;15.70;45.40
11989;DHT22;6054;50.966;7.094;2024-03-02T01:09:16;15.70;45.20
11989;DHT22;6054;50.966;7.094;2024-03-02T01:11:43;15.70;45.50
11989;DHT22;6054;50.966;7.094;2024-03-02T01:14:12;15.70;45.10
11989;DHT22;6054;50.966;7.094;2024-03-02T01:16:39;15.70;45.30
11989;DHT22;6054;50.966;7.094;2024-03-02T01:19:07;15.80;45.40
11989;DHT22;6054;50.966;7.094;2024-03-02T01:21:35;15.80;45.70
11989;DHT22;6054;50.966;7.094;2024-03-02T01:24:02;15.80;45.10
11989;DHT22;6054;50.966;7.094;2024-03-02T01:26:30;15.80;45.40
11989;DHT22;6054;50.966;7.094;2024-03-02T01:28:57;15.80;45.00
11989;DHT22;6054;50.966;7.094;2024-03-02T01:31:26;15.80;45.10
11989;DHT22;6054;50.966;7.094;2024-03-02T01:33:52;15.80;45.10
11989;DHT22;6054;50.966;7.094;2024-03-02T01:36:19;15.80;45.10
11989;DHT22;6054;50.966;7.094;2024-03-02T01:38:46;15.80;44.80
11989;DHT22;6054;50.966;7.094;2024-03-02T01:41:13;15.70;44.80
11989;DHT22;6054;50.966;7.094;2024-03-02T01:43:40;15.80;44.00
11989;DHT22;6054;50.966;7.094;2024-03-02T01:46:07;15.70;44.60
11989;DHT22;6054;50.966;7.094;2024-03-02T01:48:37;15.70;45.20
11989;DHT22;6054;50.966;7.094;2024-03-02T01:51:04;15.70;44.90
11989;DHT22;6054;50.966;7.094;2024-03-02T01:53:31;15.70;44.80
11989;DHT22;6054;50.966;7.094;2024-03-02T01:55:58;15.70;44.80
11989;DHT22;6054;50.966;7.094;2024-03-02T01:58:27;15.70;44.90
11989;DHT22;6054;50.966;7.094;2024-03-02T02:00:54;15.70;44.80
11989;DHT22;6054;50.966;7.094;2024-03-02T02:03:21;15.70;44.80
11989;DHT22;6054;50.966;7.094;2024-03-02T02:05:49;15.70;44.80
11989;DHT22;6054;50.966;7.094;2024-03-02T02:08:19;15.70;44.70
11989;DHT22;6054;50.966;7.094;2024-03-02T02:10:55;15.70;45.10
11989;DHT22;6054;50.966;7.094;2024-03-02T02:13:21;15.80;44.70
11989;DHT22;6054;50.966;7.094;2024-03-02T02:15:48;15.70;44.50
11989;DHT22;6054;50.966;7.094;2024-03-02T02:18:18;15.70;44.60
11989;DHT22;6054;50.966;7.094;2024-03-02T02:20:45;16.00;44.20
11989;DHT22;6054;50.966;7.094;2024-03-02T02:23:13;15.70;44.50
11989;DHT22;6054;50.966;7.094;2024-03-02T02:25:41;15.80;44.60
11989;DHT22;6054;50.966;7.094;2024-03-02T02:28:07;15.80;44.90
11989;DHT22;6054;50.966;7.094;2024-03-02T02:30:35;15.80;44.60
11989;DHT22;6054;50.966;7.094;2024-03-02T02:33:02;15.90;44.70
11989;DHT22;6054;50.966;7.094;2024-03-02T02:35:30;15.80;44.80
11989;DHT22;6054;50.966;7.094;2024-03-02T02:37:57;15.80;44.50
11989;DHT22;6054;50.966;7.094;2024-03-02T02:40:26;15.80;44.90
11989;DHT22;6054;50.966;7.094;2024-03-02T02:42:54;15.80;44.50
11989;DHT22;6054;50.966;7.094;2024-03-02T02:45:21;15.80;44.40
11989;DHT22;6054;50.966;7.094;2024-03-02T02:47:48;15.90;44.60
11989;DHT22;6054;50.966;7.094;2024-03-02T02:50:15;15.90;44.50
11989;DHT22;6054;50.966;7.094;2024-03-02T02:52:44;15.90;44.40
11989;DHT22;6054;50.966;7.094;2024-03-02T02:55:12;15.90;44.50
11989;DHT22;6054;50.966;7.094;2024-03-02T02:57:42;15.90;44.80
11989;DHT22;6054;50.966;7.094;2024-03-02T03:00:11;15.90;44.50
11989;DHT22;6054;50.966;7.094;2024-03-02T03:02:40;15.90;44.80
11989;DHT22;6054;50.966;7.094;2024-03-02T03:05:08;15.90;44.60
11989;DHT22;6054;50.966;7.094;2024-03-02T03:07:36;15.90;44.70
11989;DHT22;6054;50.966;7.094;2024-03-02T03:10:06;15.90;44.60
11989;DHT22;6054;50.966;7.094;2024-03-02T03:12:33;15.90;44.70
11989;DHT22;6054;50.966;7.094;2024-03-02T03:15:02;15.90;44.80
11989;DHT22;6054;50.966;7.094;2024-03-02T03:17:30;15.90;44.80
11989;DHT22;6054;50.966;7.094;2024-03-02T03:19:57;15.80;44.60
11989;DHT22;6054;50.966;7.094;2024-03-02T03:22:24;15.80;44.50
11989;DHT22;6054;50.966;7.094;2024-03-02T03:24:50;15.80;44.60
11989;DHT22;6054;50.966;7.094;2024-03-02T03:27:17;15.80;44.50
11989;DHT22;6054;50.966;7.094;2024-03-02T03:29:48;15.80;44.30
11989;DHT22;6054;50.966;7.094;2024-03-02T03:32:16;15.80;44.40
11989;DHT22;6054;50.966;7.094;2024-03-02T03:34:43;15.90;44.70
11989;DHT22;6054;50.966;7.094;2024-03-02T03:37:10;15.80;44.50
11989;DHT22;6054;50.966;7.094;2024-03-02T03:39:39;16.00;44.70
11989;DHT22;6054;50.966;7.094;2024-03-02T03:42:06;15.80;44.30
11989;DHT22;6054;50.966;7.094;2024-03-02T03:44:33;15.90;44.50
11989;DHT22;6054;50.966;7.094;2024-03-02T03:47:10;15.90;44.30
11989;DHT22;6054;50.966;7.094;2024-03-02T03:49:39;15.80;42.40
11989;DHT22;6054;50.966;7.094;2024-03-02T03:52:07;15.90;44.10
11989;DHT22;6054;50.966;7.094;2024-03-02T03:54:34;15.90;43.60
11989;DHT22;6054;50.966;7.094;2024-03-02T03:57:02;15.90;44.00
11989;DHT22;6054;50.966;7.094;2024-03-02T03:59:29;15.90;44.20
11989;DHT22;6054;50.966;7.094;2024-03-02T04:01:57;15.80;44.20
11989;DHT22;6054;50.966;7.094;2024-03-02T04:04:24;15.90;44.70
11989;DHT22;6054;50.966;7.094;2024-03-02T04:06:52;15.80;44.40
11989;DHT22;6054;50.966;7.094;2024-03-02T04:09:19;15.90;44.60
11989;DHT22;6054;50.966;7.094;2024-03-02T04:11:46;15.80;44.40
11989;DHT22;6054;50.966;7.094;2024-03-02T04:14:13;15.80;44.10
11989;DHT22;6054;50.966;7.094;2024-03-02T04:16:40;15.80;44.10
11989;DHT22;6054;50.966;7.094;2024-03-02T04:19:07;15.90;44.40
11989;DHT22;6054;50.966;7.094;2024-03-02T04:21:33;15.80;43.90
11989;DHT22;6054;50.966;7.094;2024-03-02T04:24:02;15.80;43.10
11989;DHT22;6054;50.966;7.094;2024-03-02T04:26:29;15.70;43.80
11989;DHT22;6054;50.966;7.094;2024-03-02T04:28:56;15.70;43.00
11989;DHT22;6054;50.966;7.094;2024-03-02T04:31:23;15.70;43.70
11989;DHT22;6054;50.966;7.094;2024-03-02T04:33:50;15.80;43.40
11989;DHT22;6054;50.966;7.094;2024-03-02T04:36:17;16.00;42.90
11989;DHT22;6054;50.966;7.094;2024-03-02T04:38:44;15.60;43.30
11989;DHT22;6054;50.966;7.094;2024-03-02T04:41:12;15.70;43.50
11989;DHT22;6054;50.966;7.094;2024-03-02T04:43:40;15.60;44.00
11989;DHT22;6054;50.966;7.094;2024-03-02T04:46:14;15.60;43.90
11989;DHT22;6054;50.966;7.094;2024-03-02T04:48:41;15.80;43.80
11989;DHT22;6054;50.966;7.094;2024-03-02T04:51:08;15.50;43.60
11989;DHT22;6054;50.966;7.094;2024-03-02T04:53:35;15.50;44.10
11989;DHT22;6054;50.966;7.094;2024-03-02T04:56:02;15.50;43.60
11989;DHT22;6054;50.966;7.094;2024-03-02T04:59:06;15.40;44.70
11989;DHT22;6054;50.966;7.094;2024-03-02T05:01:33;15.40;44.70
11989;DHT22;6054;50.966;7.094;2024-03-02T05:04:00;15.40;44.90
11989;DHT22;6054;50.966;7.094;2024-03-02T05:06:27;15.40;45.00
11989;DHT22;6054;50.966;7.094;2024-03-02T05:08:54;15.40;44.90
11989;DHT22;6054;50.966;7.094;2024-03-02T05:11:20;15.30;45.00
11989;DHT22;6054;50.966;7.094;2024-03-02T05:14:20;15.40;45.30
11989;DHT22;6054;50.966;7.094;2024-03-02T05:16:46;15.30;45.00
11989;DHT22;6054;50.966;7.094;2024-03-02T05:19:13;15.30;44.80
11989;DHT22;6054;50.966;7.094;2024-03-02T05:21:40;15.30;44.80
11989;DHT22;6054;50.966;7.094;2024-03-02T05:24:07;15.30;44.30
11989;DHT22;6054;50.966;7.094;2024-03-02T05:26:34;15.20;44.50
11989;DHT22;6054;50.966;7.094;2024-03-02T05:29:01;15.20;44.80
11989;DHT22;6054;50.966;7.094;2024-03-02T05:31:29;15.20;45.20
11989;DHT22;6054;50.966;7.094;2024-03-02T05:33:56;15.20;45.30
11989;DHT22;6054;50.966;7.094;2024-03-02T05:36:23;15.20;45.30
11989;DHT22;6054;50.966;7.094;2024-03-02T05:38:50;15.20;45.40
11989;DHT22;6054;50.966;7.094;2024-03-02T05:41:17;15.30;44.90
11989;DHT22;6054;50.966;7.094;2024-03-02T05:43:44;15.10;44.20
11989;DHT22;6054;50.966;7.094;2024-03-02T05:46:11;15.00;45.40
11989;DHT22;6054;50.966;7.094;2024-03-02T05:48:41;15.00;45.70
11989;DHT22;6054;50.966;7.094;2024-03-02T05:51:09;14.90;46.10
11989;DHT22;6054;50.966;7.094;2024-03-02T05:53:36;15.20;45.80
11989;DHT22;6054;50.966;7.094;2024-03-02T05:56:05;14.90;45.90
11989;DHT22;6054;50.966;7.094;2024-03-02T05:58:32;14.90;45.60
11989;DHT22;6054;50.966;7.094;2024-03-02T06:01:11;14.90;45.90
11989;DHT22;6054;50.966;7.094;2024-03-02T06:03:40;14.80;45.50
11989;DHT22;6054;50.966;7.094;2024-03-02T06:06:07;14.80;44.80
11989;DHT22;6054;50.966;7.094;2024-03-02T06:08:34;14.80;45.70
11989;DHT22;6054;50.966;7.094;2024-03-02T06:11:01;14.80;45.80
11989;DHT22;6054;50.966;7.094;2024-03-02T06:13:28;14.80;45.90
11989;DHT22;6054;50.966;7.094;2024-03-02T06:15:55;14.80;46.00
11989;DHT22;6054;50.966;7.094;2024-03-02T06:18:22;14.80;46.20
11989;DHT22;6054;50.966;7.094;2024-03-02T06:20:50;14.70;45.80
11989;DHT22;6054;50.966;7.094;2024-03-02T06:23:18;14.90;46.20
11989;DHT22;6054;50.966;7.094;2024-03-02T06:25:44;14.80;46.30
11989;DHT22;6054;50.966;7.094;2024-03-02T06:28:12;14.80;46.10
11989;DHT22;6054;50.966;7.094;2024-03-02T06:30:40;15.00;46.20
11989;DHT22;6054;50.966;7.094;2024-03-02T06:33:09;14.80;46.50
11989;DHT22;6054;50.966;7.094;2024-03-02T06:35:36;14.80;46.30
11989;DHT22;6054;50.966;7.094;2024-03-02T06:38:07;14.80;46.50
11989;DHT22;6054;50.966;7.094;2024-03-02T06:40:35;14.80;46.60
11989;DHT22;6054;50.966;7.094;2024-03-02T06:43:04;14.80;46.70
11989;DHT22;6054;50.966;7.094;2024-03-02T06:45:31;14.80;46.50
11989;DHT22;6054;50.966;7.094;2024-03-02T06:48:00;14.80;46.00
11989;DHT22;6054;50.966;7.094;2024-03-02T06:50:27;14.80;46.30
11989;DHT22;6054;50.966;7.094;2024-03-02T06:52:54;14.80;46.40
11989;DHT22;6054;50.966;7.094;2024-03-02T06:55:24;14.80;45.80
11989;DHT22;6054;50.966;7.094;2024-03-02T06:57:51;14.80;45.90
11989;DHT22;6054;50.966;7.094;2024-03-02T07:00:19;14.90;46.30
11989;DHT22;6054;50.966;7.094;2024-03-02T07:02:55;14.90;46.50
11989;DHT22;6054;50.966;7.094;2024-03-02T07:05:22;14.90;46.30
11989;DHT22;6054;50.966;7.094;2024-03-02T07:07:53;15.20;46.80
11989;DHT22;6054;50.966;7.094;2024-03-02T07:10:20;14.90;45.70
11989;DHT22;6054;50.966;7.094;2024-03-02T07:12:48;14.80;45.80
11989;DHT22;6054;50.966;7.094;2024-03-02T07:15:15;14.90;45.70
11989;DHT22;6054;50.966;7.094;2024-03-02T07:18:03;15.00;46.60
11989;DHT22;6054;50.966;7.094;2024-03-02T07:20:30;15.00;46.70
11989;DHT22;6054;50.966;7.094;2024-03-02T07:22:57;15.00;46.10
11989;DHT22;6054;50.966;7.094;2024-03-02T07:25:27;15.00;45.30
11989;DHT22;6054;50.966;7.094;2024-03-02T07:27:59;15.00;45.90
11989;DHT22;6054;50.966;7.094;2024-03-02T07:30:26;15.00;46.90
11989;DHT22;6054;50.966;7.094;2024-03-02T07:32:53;15.00;46.30
11989;DHT22;6054;50.966;7.094;2024-03-02T07:35:20;15.00;46.00
11989;DHT22;6054;50.966;7.094;2024-03-02T07:37:48;15.10;46.70
11989;DHT22;6054;50.966;7.094;2024-03-02T07:40:15;15.10;45.50
11989;DHT22;6054;50.966;7.094;2024-03-02T07:42:45;14.90;43.80
11989;DHT22;6054;50.966;7.094;2024-03-02T07:45:14;15.50;45.30
11989;DHT22;6054;50.966;7.094;2024-03-02T07:47:42;15.30;45.60
11989;DHT22;6054;50.966;7.094;2024-03-02T07:50:14;15.60;46.70
11989;DHT22;6054;50.966;7.094;2024-03-02T07:52:41;15.40;47.10
11989;DHT22;6054;50.966;7.094;2024-03-02T07:55:08;15.40;45.20
11989;DHT22;6054;50.966;7.094;2024-03-02T07:57:38;15.40;45.40
11989;DHT22;6054;50.966;7.094;2024-03-02T08:00:07;15.80;45.50
11989;DHT22;6054;50.966;7.094;2024-03-02T08:02:40;15.50;44.80
11989;DHT22;6054;50.966;7.094;2024-03-02T08:05:08;15.80;46.30
11989;DHT22;6054;50.966;7.094;2024-03-02T08:07:35;15.60;45.50
11989;DHT22;6054;50.966;7.094;2024-03-02T08:10:02;15.60;45.90
11989;DHT22;6054;50.966;7.094;2024-03-02T08:12:30;15.70;45.50
11989;DHT22;6054;50.966;7.094;2024-03-02T08:14:57;15.70;46.10
11989;DHT22;6054;50.966;7.094;2024-03-02T08:17:26;15.70;46.10
11989;DHT22;6054;50.966;7.094;2024-03-02T08:19:56;15.80;46.10
11989;DHT22;6054;50.966;7.094;2024-03-02T08:22:23;15.80;45.90
11989;DHT22;6054;50.966;7.094;2024-03-02T08:24:52;15.90;45.90
11989;DHT22;6054;50.966;7.094;2024-03-02T08:27:23;16.10;46.50
11989;DHT22;6054;50.966;7.094;2024-03-02T08:29:50;16.00;46.20
11989;DHT22;6054;50.966;7.094;2024-03-02T08:32:19;16.00;46.00
11989;DHT22;6054;50.966;7.094;2024-03-02T08:34:47;16.00;45.70
11989;DHT22;6054;50.966;7.094;2024-03-02T08:37:22;16.10;45.90
11989;DHT22;6054;50.966;7.094;2024-03-02T08:39:50;16.20;45.80
11989;DHT22;6054;50.966;7.094;2024-03-02T08:42:17;16.30;45.80
11989;DHT22;6054;50.966;7.094;2024-03-02T08:44:46;16.30;45.40
11989;DHT22;6054;50.966;7.094;2024-03-02T08:47:14;16.40;45.90
11989;DHT22;6054;50.966;7.094;2024-03-02T08:49:41;16.50;46.10
11989;DHT22;6054;50.966;7.094;2024-03-02T08:52:10;16.50;46.10
11989;DHT22;6054;50.966;7.094;2024-03-02T08:54:38;16.50;45.50
11989;DHT22;6054;50.966;7.094;2024-03-02T08:57:06;16.60;44.50
11989;DHT22;6054;50.966;7.094;2024-03-02T08:59:36;16.50;44.70
11989;DHT22;6054;50.966;7.094;2024-03-02T09:02:03;16.60;45.50
11989;DHT22;6054;50.966;7.094;2024-03-02T09:04:31;16.70;45.30
11989;DHT22;6054;50.966;7.094;2024-03-02T09:07:04;16.70;44.80
11989;DHT22;6054;50.966;7.094;2024-03-02T09:09:34;16.80;43.40
11989;DHT22;6054;50.966;7.094;2024-03-02T09:12:08;16.80;44.10
11989;DHT22;6054;50.966;7.094;2024-03-02T09:14:38;16.90;44.00
11989;DHT22;6054;50.966;7.094;2024-03-02T09:17:10;16.90;42.90
11989;DHT22;6054;50.966;7.094;2024-03-02T09:19:41;17.00;41.60
11989;DHT22;6054;50.966;7.094;2024-03-02T09:22:10;17.00;41.80
11989;DHT22;6054;50.966;7.094;2024-03-02T09:24:38;17.10;43.90
11989;DHT22;6054;50.966;7.094;2024-03-02T09:27:07;17.10;42.70
11989;DHT22;6054;50.966;7.094;2024-03-02T09:29:39;17.40;41.90
11989;DHT22;6054;50.966;7.094;2024-03-02T09:32:07;17.00;42.00
11989;DHT22;6054;50.966;7.094;2024-03-02T09:34:46;17.40;44.50
11989;DHT22;6054;50.966;7.094;2024-03-02T09:37:15;17.40;42.80
11989;DHT22;6054;50.966;7.094;2024-03-02T09:39:44;17.60;44.20
11989;DHT22;6054;50.966;7.094;2024-03-02T09:42:15;17.70;43.80
11989;DHT22;6054;50.966;7.094;2024-03-02T09:44:44;17.60;44.20
11989;DHT22;6054;50.966;7.094;2024-03-02T09:47:22;17.70;44.40
11989;DHT22;6054;50.966;7.094;2024-03-02T09:49:53;17.80;43.40
11989;DHT22;6054;50.966;7.094;2024-03-02T09:52:22;17.80;39.80
11989;DHT22;6054;50.966;7.094;2024-03-02T09:54:49;17.80;43.20
11989;DHT22;6054;50.966;7.094;2024-03-02T09:57:18;17.90;43.10
11989;DHT22;6054;50.966;7.094;2024-03-02T09:59:45;17.90;43.20
11989;DHT22;6054;50.966;7.094;2024-03-02T10:02:13;17.90;43.10
11989;DHT22;6054;50.966;7.094;2024-03-02T10:04:39;18.00;43.10
11989;DHT22;6054;50.966;7.094;2024-03-02T10:07:12;18.00;42.90
11989;DHT22;6054;50.966;7.094;2024-03-02T10:09:40;18.00;43.20
11989;DHT22;6054;50.966;7.094;2024-03-02T10:12:13;18.10;42.70
11989;DHT22;6054;50.966;7.094;2024-03-02T10:14:43;18.10;43.10
11989;DHT22;6054;50.966;7.094;2024-03-02T10:17:14;18.20;42.30
11989;DHT22;6054;50.966;7.094;2024-03-02T10:19:54;18.20;42.30
11989;DHT22;6054;50.966;7.094;2024-03-02T10:22:23;18.20;42.20
11989;DHT22;6054;50.966;7.094;2024-03-02T10:24:52;18.20;42.20
11989;DHT22;6054;50.966;7.094;2024-03-02T10:27:36;18.30;42.70
11989;DHT22;6054;50.966;7.094;2024-03-02T10:30:11;18.40;42.80
11989;DHT22;6054;50.966;7.094;2024-03-02T10:32:43;18.50;43.00
11989;DHT22;6054;50.966;7.094;2024-03-02T10:35:11;18.60;42.90
11989;DHT22;6054;50.966;7.094;2024-03-02T10:37:39;18.80;42.10
11989;DHT22;6054;50.966;7.094;2024-03-02T10:40:07;18.70;40.80
11989;DHT22;6054;50.966;7.094;2024-03-02T10:42:39;18.80;41.70
11989;DHT22;6054;50.966;7.094;2024-03-02T10:45:10;18.90;40.90
11989;DHT22;6054;50.966;7.094;2024-03-02T10:47:38;18.90;41.60
11989;DHT22;6054;50.966;7.094;2024-03-02T10:50:06;19.00;41.70
11989;DHT22;6054;50.966;7.094;2024-03-02T10:52:36;19.10;41.70
11989;DHT22;6054;50.966;7.094;2024-03-02T10:55:03;19.10;41.20
11989;DHT22;6054;50.966;7.094;2024-03-02T10:57:50;19.20;41.10
11989;DHT22;6054;50.966;7.094;2024-03-02T11:00:21;19.10;40.40
11989;DHT22;6054;50.966;7.094;2024-03-02T11:02:56;19.30;41.00
11989;DHT22;6054;50.966;7.094;2024-03-02T11:05:44;19.30;41.00
11989;DHT22;6054;50.966;7.094;2024-03-02T11:08:20;19.50;40.60
11989;DHT22;6054;50.966;7.094;2024-03-02T11:10:58;19.70;40.60
11989;DHT22;6054;50.966;7.094;2024-03-02T11:13:32;19.60;39.40
11989;DHT22;6054;50.966;7.094;2024-03-02T11:16:18;19.80;40.10
11989;DHT22;6054;50.966;7.094;2024-03-02T11:18:50;19.80;40.60
11989;DHT22;6054;50.966;7.094;2024-03-02T11:21:17;19.80;40.20
11989;DHT22;6054;50.966;7.094;2024-03-02T11:23:45;19.90;40.20
11989;DHT22;6054;50.966;7.094;2024-03-02T11:26:18;20.20;38.40
11989;DHT22;6054;50.966;7.094;2024-03-02T11:28:51;20.30;39.30
11989;DHT22;6054;50.966;7.094;2024-03-02T11:31:23;20.10;39.10
11989;DHT22;6054;50.966;7.094;2024-03-02T11:34:29;20.20;40.40
11989;DHT22;6054;50.966;7.094;2024-03-02T11:36:56;20.30;39.00
11989;DHT22;6054;50.966;7.094;2024-03-02T11:39:27;20.30;38.60
11989;DHT22;6054;50.966;7.094;2024-03-02T11:41:57;20.30;39.80
11989;DHT22;6054;50.966;7.094;2024-03-02T11:44:26;20.30;39.50
11989;DHT22;6054;50.966;7.094;2024-03-02T11:47:00;20.30;39.40
11989;DHT22;6054;50.966;7.094;2024-03-02T11:49:38;20.10;39.70
11989;DHT22;6054;50.966;7.094;2024-03-02T11:52:16;20.40;39.10
11989;DHT22;6054;50.966;7.094;2024-03-02T11:54:44;20.30;39.20
11989;DHT22;6054;50.966;7.094;2024-03-02T11:57:18;20.30;39.00
11989;DHT22;6054;50.966;7.094;2024-03-02T11:59:49;20.50;39.20
11989;DHT22;6054;50.966;7.094;2024-03-02T12:02:26;20.40;36.80
11989;DHT22;6054;50.966;7.094;2024-03-02T12:04:53;20.30;39.40
11989;DHT22;6054;50.966;7.094;2024-03-02T12:07:24;20.60;37.60
11989;DHT22;6054;50.966;7.094;2024-03-02T12:10:00;20.40;39.10
11989;DHT22;6054;50.966;7.094;2024-03-02T12:12:33;20.40;40.20
11989;DHT22;6054;50.966;7.094;2024-03-02T12:15:06;20.50;39.40
11989;DHT22;6054;50.966;7.094;2024-03-02T12:17:59;20.50;39.60
11989;DHT22;6054;50.966;7.094;2024-03-02T12:20:30;20.50;38.40
11989;DHT22;6054;50.966;7.094;2024-03-02T12:23:00;20.80;39.50
11989;DHT22;6054;50.966;7.094;2024-03-02T12:25:30;20.50;37.10
11989;DHT22;6054;50.966;7.094;2024-03-02T12:28:09;20.80;39.30
11989;DHT22;6054;50.966;7.094;2024-03-02T12:30:41;21.00;40.30
11989;DHT22;6054;50.966;7.094;2024-03-02T12:33:16;21.00;39.90
11989;DHT22;6054;50.966;7.094;2024-03-02T12:35:44;21.00;37.50
11989;DHT22;6054;50.966;7.094;2024-03-02T12:38:19;21.30;39.20
11989;DHT22;6054;50.966;7.094;2024-03-02T12:40:47;21.20;39.20
11989;DHT22;6054;50.966;7.094;2024-03-02T12:43:21;21.10;38.90
11989;DHT22;6054;50.966;7.094;2024-03-02T12:45:50;21.10;39.60
11989;DHT22;6054;50.966;7.094;2024-03-02T12:48:19;21.10;39.50
11989;DHT22;6054;50.966;7.094;2024-03-02T12:50:54;21.20;39.30
11989;DHT22;6054;50.966;7.094;2024-03-02T12:53:25;21.50;38.00
11989;DHT22;6054;50.966;7.094;2024-03-02T12:55:54;21.40;39.30
11989;DHT22;6054;50.966;7.094;2024-03-02T12:58:23;21.60;38.30
11989;DHT22;6054;50.966;7.094;2024-03-02T13:01:05;21.30;37.10
11989;DHT22;6054;50.966;7.094;2024-03-02T13:03:37;21.30;38.40
11989;DHT22;6054;50.966;7.094;2024-03-02T13:06:05;21.40;39.20
11989;DHT22;6054;50.966;7.094;2024-03-02T13:08:38;21.60;38.70
11989;DHT22;6054;50.966;7.094;2024-03-02T13:11:05;21.70;38.80
11989;DHT22;6054;50.966;7.094;2024-03-02T13:13:33;21.90;38.30
11989;DHT22;6054;50.966;7.094;2024-03-02T13:16:13;21.90;38.30
11989;DHT22;6054;50.966;7.094;2024-03-02T13:18:44;22.00;38.00
11989;DHT22;6054;50.966;7.094;2024-03-02T13:21:12;22.10;37.80
11989;DHT22;6054;50.966;7.094;2024-03-02T13:23:39;22.20;37.70
11989;DHT22;6054;50.966;7.094;2024-03-02T13:26:10;22.20;37.10
11989;DHT22;6054;50.966;7.094;2024-03-02T13:28:44;22.20;38.20
11989;DHT22;6054;50.966;7.094;2024-03-02T13:31:22;22.30;36.70
11989;DHT22;6054;50.966;7.094;2024-03-02T13:33:52;22.30;36.90
11989;DHT22;6054;50.966;7.094;2024-03-02T13:36:23;22.40;37.70
11989;DHT22;6054;50.966;7.094;2024-03-02T13:38:50;22.50;36.50
11989;DHT22;6054;50.966;7.094;2024-03-02T13:41:17;22.20;36.80
11989;DHT22;6054;50.966;7.094;2024-03-02T13:43:47;22.30;37.30
11989;DHT22;6054;50.966;7.094;2024-03-02T13:46:17;22.40;37.60
11989;DHT22;6054;50.966;7.094;2024-03-02T13:48:44;22.60;37.60
11989;DHT22;6054;50.966;7.094;2024-03-02T13:51:16;22.40;37.30
11989;DHT22;6054;50.966;7.094;2024-03-02T13:53:43;22.70;37.90
11989;DHT22;6054;50.966;7.094;2024-03-02T13:56:11;22.50;37.20
11989;DHT22;6054;50.966;7.094;2024-03-02T13:58:42;22.40;37.20
11989;DHT22;6054;50.966;7.094;2024-03-02T14:01:09;22.40;37.10
11989;DHT22;6054;50.966;7.094;2024-03-02T14:03:37;22.40;37.10
11989;DHT22;6054;50.966;7.094;2024-03-02T14:06:04;22.30;35.30
11989;DHT22;6054;50.966;7.094;2024-03-02T14:08:39;22.60;36.60
11989;DHT22;6054;50.966;7.094;2024-03-02T14:11:08;22.30;36.70
11989;DHT22;6054;50.966;7.094;2024-03-02T14:13:41;22.30;36.50
11989;DHT22;6054;50.966;7.094;2024-03-02T14:16:11;22.30;37.30
11989;DHT22;6054;50.966;7.094;2024-03-02T14:18:39;22.30;37.00
11989;DHT22;6054;50.966;7.094;2024-03-02T14:21:07;22.20;37.10
11989;DHT22;6054;50.966;7.094;2024-03-02T14:23:34;22.30;37.20
11989;DHT22;6054;50.966;7.094;2024-03-02T14:26:05;22.40;37.00
11989;DHT22;6054;50.966;7.094;2024-03-02T14:28:35;22.30;37.10
11989;DHT22;6054;50.966;7.094;2024-03-02T14:31:03;22.20;35.90
11989;DHT22;6054;50.966;7.094;2024-03-02T14:33:33;22.20;35.90
11989;DHT22;6054;50.966;7.094;2024-03-02T14:36:05;22.10;35.20
11989;DHT22;6054;50.966;7.094;2024-03-02T14:38:35;22.20;35.80
11989;DHT22;6054;50.966;7.094;2024-03-02T14:41:10;22.00;36.20
11989;DHT22;6054;50.966;7.094;2024-03-02T14:43:39;22.00;33.70
11989;DHT22;6054;50.966;7.094;2024-03-02T14:46:12;22.00;37.20
11989;DHT22;6054;50.966;7.094;2024-03-02T14:48:45;22.30;36.40
11989;DHT22;6054;50.966;7.094;2024-03-02T14:51:15;22.00;37.00
11989;DHT22;6054;50.966;7.094;2024-03-02T14:53:48;22.00;37.00
11989;DHT22;6054;50.966;7.094;2024-03-02T14:56:21;21.90;37.30
11989;DHT22;6054;50.966;7.094;2024-03-02T14:58:48;21.90;37.30
11989;DHT22;6054;50.966;7.094;2024-03-02T15:01:16;22.00;37.30
11989;DHT22;6054;50.966;7.094;2024-03-02T15:03:46;21.90;36.70
11989;DHT22;6054;50.966;7.094;2024-03-02T15:06:17;22.00;37.10
11989;DHT22;6054;50.966;7.094;2024-03-02T15:08:44;21.90;37.10
11989;DHT22;6054;50.966;7.094;2024-03-02T15:11:12;21.80;37.10
11989;DHT22;6054;50.966;7.094;2024-03-02T15:13:44;21.80;37.10
11989;DHT22;6054;50.966;7.094;2024-03-02T15:16:11;21.80;37.20
11989;DHT22;6054;50.966;7.094;2024-03-02T15:18:38;21.80;37.00
11989;DHT22;6054;50.966;7.094;2024-03-02T15:21:05;21.70;37.00
11989;DHT22;6054;50.966;7.094;2024-03-02T15:23:34;21.90;37.20
11989;DHT22;6054;50.966;7.094;2024-03-02T15:26:02;21.70;37.20
11989;DHT22;6054;50.966;7.094;2024-03-02T15:28:35;21.70;37.30
11989;DHT22;6054;50.966;7.094;2024-03-02T15:31:06;21.70;37.60
11989;DHT22;6054;50.966;7.094;2024-03-02T15:33:35;21.90;37.30
11989;DHT22;6054;50.966;7.094;2024-03-02T15:36:10;21.60;37.30
11989;DHT22;6054;50.966;7.094;2024-03-02T15:38:44;21.60;37.10
11989;DHT22;6054;50.966;7.094;2024-03-02T15:41:11;21.90;37.20
11989;DHT22;6054;50.966;7.094;2024-03-02T15:43:38;21.70;37.00
11989;DHT22;6054;50.966;7.094;2024-03-02T15:46:09;21.70;37.00
11989;DHT22;6054;50.966;7.094;2024-03-02T15:48:38;21.90;36.20
11989;DHT22;6054;50.966;7.094;2024-03-02T15:51:07;21.70;35.80
11989;DHT22;6054;50.966;7.094;2024-03-02T15:53:36;21.80;36.90
11989;DHT22;6054;50.966;7.094;2024-03-02T15:56:03;21.80;36.40
11989;DHT22;6054;50.966;7.094;2024-03-02T15:58:31;21.80;36.80
11989;DHT22;6054;50.966;7.094;2024-03-02T16:01:00;22.00;36.50